sensor_id;sensor_type;location;lat;lon;timestamp;pressure;altitude;pressure_sealevel;temperature;humidity
45247;BME280;31529;51.158;7.354;2023-07-02T00:00:00;97169.47;;;17.27;100.00
45247;BME280;31529;51.158;7.354;2023-07-02T00:00:31;97171.03;;;17.28;100.00
45247;BME280;31529;51.158;7.354;2023-07-02T00:01:02;97176.41;;;17.28;100.00
45247;BME280;31529;51.158;7.354;2023-07-02T00:01:34;97167.88;;;17.26;100.00
45247;BME280;31529;51.158;7.354;2023-07-02T00:02:05;97174.06;;;17.26;100.00
45247;BME280;31529;51.158;7.354;2023-07-02T00:02:36;97174.88;;;17.27;100.00
45247;BME280;31529;51.158;7.354;2023-07-02T00:03:07;97178.69;;;17.26;100.00
45247;BME280;31529;51.158;7.354;2023-07-02T00:03:40;97170.59;;;17.26;100.00
45247;BME280;31529;51.158;7.354;2023-07-02T00:04:12;97172.50;;;17.25;100.00
45247;BME280;31529;51.158;7.354;2023-07-02T00:04:46;97107.47;;;16.83;100.00
45247;BME280;31529;51.158;7.354;2023-07-02T00:05:18;97172.16;;;17.27;100.00
45247;BME280;31529;51.158;7.354;2023-07-02T00:05:49;97171.72;;;17.25;100.00
45247;BME280;31529;51.158;7.354;2023-07-02T00:06:21;97174.88;;;17.27;100.00
45247;BME280;31529;51.158;7.354;2023-07-02T00:06:52;97172.50;;;17.25;100.00
45247;BME280;31529;51.158;7.354;2023-07-02T00:07:23;97168.66;;;17.26;100.00
45247;BME280;31529;51.158;7.354;2023-07-02T00:07:56;97167.88;;;17.26;100.00
45247;BME280;31529;51.158;7.354;2023-07-02T00:08:27;97172.50;;;17.25;100.00
45247;BME280;31529;51.158;7.354;2023-07-02T00:08:58;97164.41;;;17.25;100.00
45247;BME280;31529;51.158;7.354;2023-07-02T00:09:29;97167.13;;;17.25;100.00
45247;BME280;31529;51.158;7.354;2023-07-02T00:10:00;97164.75;;;17.24;100.00
45247;BME280;31529;51.158;7.354;2023-07-02T00:10:32;97168.22;;;17.24;100.00
45247;BME280;31529;51.158;7.354;2023-07-02T00:11:03;97167.47;;;17.24;100.00
45247;BME280;31529;51.158;7.354;2023-07-02T00:11:34;97160.16;;;17.24;100.00
45247;BME280;31529;51.158;7.354;2023-07-02T00:12:05;97168.59;;;17.23;100.00
45247;BME280;31529;51.158;7.354;2023-07-02T00:12:36;97170.16;;;17.24;100.00
45247;BME280;31529;51.158;7.354;2023-07-02T00:13:07;97164.31;;;17.22;100.00
45247;BME280;31529;51.158;7.354;2023-07-02T00:13:39;97160.84;;;17.21;100.00
45247;BME280;31529;51.158;7.354;2023-07-02T00:14:10;97165.47;;;17.21;100.00
45247;BME280;31529;51.158;7.354;2023-07-02T00:14:41;97168.16;;;17.21;100.00
45247;BME280;31529;51.158;7.354;2023-07-02T00:15:12;97174.69;;;17.20;100.00
45247;BME280;31529;51.158;7.354;2023-07-02T00:15:43;97164.66;;;17.20;100.00
45247;BME280;31529;51.158;7.354;2023-07-02T00:16:14;97165.00;;;17.18;100.00
45247;BME280;31529;51.158;7.354;2023-07-02T00:16:45;97159.97;;;17.17;100.00
45247;BME280;31529;51.158;7.354;2023-07-02T00:17:17;97163.47;;;17.17;100.00
45247;BME280;31529;51.158;7.354;2023-07-02T00:17:48;97163.03;;;17.15;100.00
45247;BME280;31529;51.158;7.354;2023-07-02T00:18:19;97164.56;;;17.16;100.00
45247;BME280;31529;51.158;7.354;2023-07-02T00:18:50;97169.97;;;17.16;100.00
45247;BME280;31529;51.158;7.354;2023-07-02T00:19:23;97167.63;;;17.15;100.00
45247;BME280;31529;51.158;7.354;2023-07-02T00:19:54;97163.03;;;17.15;100.00
45247;BME280;31529;51.158;7.354;2023-07-02T00:20:25;97163.78;;;17.16;100.00
45247;BME280;31529;51.158;7.354;2023-07-02T00:20:56;97165.72;;;17.15;100.00
45247;BME280;31529;51.158;7.354;2023-07-02T00:21:27;97167.63;;;17.15;100.00
45247;BME280;31529;51.158;7.354;2023-07-02T00:21:59;97168.75;;;17.14;100.00
45247;BME280;31529;51.158;7.354;2023-07-02T00:22:30;97162.59;;;17.13;100.00
45247;BME280;31529;51.158;7.354;2023-07-02T00:23:02;97165.28;;;17.13;100.00
45247;BME280;31529;51.158;7.354;2023-07-02T00:23:33;97161.00;;;17.12;100.00
45247;BME280;31529;51.158;7.354;2023-07-02T00:24:04;97165.63;;;17.12;100.00
45247;BME280;31529;51.158;7.354;2023-07-02T00:24:35;97165.63;;;17.12;100.00
45247;BME280;31529;51.158;7.354;2023-07-02T00:25:07;97167.16;;;17.13;100.00
45247;BME280;31529;51.158;7.354;2023-07-02T00:25:38;97161.78;;;17.13;100.00
45247;BME280;31529;51.158;7.354;2023-07-02T00:26:09;97168.31;;;17.12;100.00
45247;BME280;31529;51.158;7.354;2023-07-02T00:26:40;97158.66;;;17.11;100.00
45247;BME280;31529;51.158;7.354;2023-07-02T00:27:12;97167.53;;;17.11;100.00
45247;BME280;31529;51.158;7.354;2023-07-02T00:27:42;97165.97;;;17.10;100.00
45247;BME280;31529;51.158;7.354;2023-07-02T00:28:14;97170.56;;;17.10;100.00
45247;BME280;31529;51.158;7.354;2023-07-02T00:28:45;97159.78;;;17.10;100.00
45247;BME280;31529;51.158;7.354;2023-07-02T00:29:16;97161.72;;;17.09;100.00
45247;BME280;31529;51.158;7.354;2023-07-02T00:29:47;97165.19;;;17.10;100.00
45247;BME280;31529;51.158;7.354;2023-07-02T00:30:18;97159.78;;;17.10;100.00
45247;BME280;31529;51.158;7.354;2023-07-02T00:30:49;97156.31;;;17.09;100.00
45247;BME280;31529;51.158;7.354;2023-07-02T00:31:20;97161.72;;;17.09;100.00
45247;BME280;31529;51.158;7.354;2023-07-02T00:31:51;97162.81;;;17.08;100.00
45247;BME280;31529;51.158;7.354;2023-07-02T00:32:23;97160.91;;;17.09;100.00
45247;BME280;31529;51.158;7.354;2023-07-02T00:32:54;97164.41;;;17.09;100.00
45247;BME280;31529;51.158;7.354;2023-07-02T00:33:25;97158.22;;;17.09;100.00
45247;BME280;31529;51.158;7.354;2023-07-02T00:33:56;97157.44;;;17.08;100.00
45247;BME280;31529;51.158;7.354;2023-07-02T00:34:27;97155.50;;;17.09;100.00
45247;BME280;31529;51.158;7.354;2023-07-02T00:34:58;97162.06;;;17.08;100.00
45247;BME280;31529;51.158;7.354;2023-07-02T00:35:29;97162.81;;;17.08;100.00
45247;BME280;31529;51.158;7.354;2023-07-02T00:36:00;97155.84;;;17.07;100.00
45247;BME280;31529;51.158;7.354;2023-07-02T00:36:32;97162.06;;;17.08;100.00
45247;BME280;31529;51.158;7.354;2023-07-02T00:37:03;97159.69;;;17.06;100.00
45247;BME280;31529;51.158;7.354;2023-07-02T00:37:34;97161.25;;;17.07;100.00
45247;BME280;31529;51.158;7.354;2023-07-02T00:38:05;97161.25;;;17.07;100.00
45247;BME280;31529;51.158;7.354;2023-07-02T00:38:36;97163.16;;;17.07;100.00
45247;BME280;31529;51.158;7.354;2023-07-02T00:39:07;97164.31;;;17.06;100.00
45247;BME280;31529;51.158;7.354;2023-07-02T00:39:38;97164.75;;;17.08;100.00
45247;BME280;31529;51.158;7.354;2023-07-02T00:40:09;97170.81;;;17.05;100.00
45247;BME280;31529;51.158;7.354;2023-07-02T00:40:41;97161.25;;;17.07;100.00
45247;BME280;31529;51.158;7.354;2023-07-02T00:41:12;97160.81;;;17.05;100.00
45247;BME280;31529;51.158;7.354;2023-07-02T00:41:44;97165.09;;;17.06;100.00
45247;BME280;31529;51.158;7.354;2023-07-02T00:42:16;97163.94;;;17.07;100.00
45247;BME280;31529;51.158;7.354;2023-07-02T00:42:48;97161.97;;;17.04;100.00
45247;BME280;31529;51.158;7.354;2023-07-02T00:43:19;97162.72;;;17.05;100.00
45247;BME280;31529;51.158;7.354;2023-07-02T00:43:50;97161.97;;;17.04;100.00
45247;BME280;31529;51.158;7.354;2023-07-02T00:44:24;97163.50;;;17.05;100.00
45247;BME280;31529;51.158;7.354;2023-07-02T00:44:56;97163.50;;;17.05;100.00
45247;BME280;31529;51.158;7.354;2023-07-02T00:45:33;97161.97;;;17.04;100.00
45247;BME280;31529;51.158;7.354;2023-07-02T00:46:04;97161.19;;;17.04;100.00
45247;BME280;31529;51.158;7.354;2023-07-02T00:46:35;97168.47;;;17.03;100.00
45247;BME280;31529;51.158;7.354;2023-07-02T00:47:09;97157.69;;;17.03;100.00
45247;BME280;31529;51.158;7.354;2023-07-02T00:47:42;97159.59;;;17.03;100.00
45247;BME280;31529;51.158;7.354;2023-07-02T00:48:13;97166.91;;;17.02;100.00
45247;BME280;31529;51.158;7.354;2023-07-02T00:48:44;97164.22;;;17.02;100.00
45247;BME280;31529;51.158;7.354;2023-07-02T00:49:16;97157.25;;;17.01;100.00
45247;BME280;31529;51.158;7.354;2023-07-02T00:49:47;97161.53;;;17.02;100.00
45247;BME280;31529;51.158;7.354;2023-07-02T00:50:19;97164.22;;;17.02;100.00
45247;BME280;31529;51.158;7.354;2023-07-02T00:50:50;97160.75;;;17.02;100.00
45247;BME280;31529;51.158;7.354;2023-07-02T00:51:24;97168.03;;;17.01;100.00
45247;BME280;31529;51.158;7.354;2023-07-02T00:51:57;97163.44;;;17.02;100.00
45247;BME280;31529;51.158;7.354;2023-07-02T00:52:28;97165.34;;;17.01;100.00
45247;BME280;31529;51.158;7.354;2023-07-02T00:52:59;97154.56;;;17.01;100.00
45247;BME280;31529;51.158;7.354;2023-07-02T00:53:30;97165.34;;;17.01;100.00
45247;BME280;31529;51.158;7.354;2023-07-02T00:54:03;97162.63;;;17.01;100.00
45247;BME280;31529;51.158;7.354;2023-07-02T00:54:34;97165.34;;;17.01;100.00
45247;BME280;31529;51.158;7.354;2023-07-02T00:55:06;97160.28;;;17.00;100.00
45247;BME280;31529;51.158;7.354;2023-07-02T00:55:37;97159.50;;;16.99;100.00
45247;BME280;31529;51.158;7.354;2023-07-02T00:56:08;97169.94;;;17.01;100.00
45247;BME280;31529;51.158;7.354;2023-07-02T00:56:40;97159.50;;;16.99;100.00
45247;BME280;31529;51.158;7.354;2023-07-02T00:57:11;97164.13;;;16.98;100.00
45247;BME280;31529;51.158;7.354;2023-07-02T00:57:42;97164.13;;;16.98;100.00
45247;BME280;31529;51.158;7.354;2023-07-02T00:58:17;97160.66;;;16.98;100.00
45247;BME280;31529;51.158;7.354;2023-07-02T00:58:53;97161.75;;;16.97;100.00
45247;BME280;31529;51.158;7.354;2023-07-02T00:59:25;97164.78;;;16.95;100.00
45247;BME280;31529;51.158;7.354;2023-07-02T00:59:57;97162.09;;;16.95;100.00
45247;BME280;31529;51.158;7.354;2023-07-02T01:00:30;97159.41;;;16.95;100.00
45247;BME280;31529;51.158;7.354;2023-07-02T01:01:02;97163.25;;;16.94;100.00
45247;BME280;31529;51.158;7.354;2023-07-02T01:01:33;97161.66;;;16.93;100.00
45247;BME280;31529;51.158;7.354;2023-07-02T01:02:08;97160.88;;;16.93;100.00
45247;BME280;31529;51.158;7.354;2023-07-02T01:02:39;97160.88;;;16.93;100.00
45247;BME280;31529;51.158;7.354;2023-07-02T01:03:14;97153.91;;;16.92;100.00
45247;BME280;31529;51.158;7.354;2023-07-02T01:04:30;97161.56;;;16.90;100.00
45247;BME280;31529;51.158;7.354;2023-07-02T01:05:01;97163.16;;;16.91;100.00
45247;BME280;31529;51.158;7.354;2023-07-02T01:05:33;97161.56;;;16.90;100.00
45247;BME280;31529;51.158;7.354;2023-07-02T01:06:06;97161.56;;;16.90;100.00
45247;BME280;31529;51.158;7.354;2023-07-02T01:06:38;97160.00;;;16.89;100.00
45247;BME280;31529;51.158;7.354;2023-07-02T01:07:11;97159.22;;;16.88;100.00
45247;BME280;31529;51.158;7.354;2023-07-02T01:07:42;97160.78;;;16.89;100.00
45247;BME280;31529;51.158;7.354;2023-07-02T01:08:13;97158.44;;;16.88;100.00
45247;BME280;31529;51.158;7.354;2023-07-02T01:08:45;97159.22;;;16.88;100.00
45247;BME280;31529;51.158;7.354;2023-07-02T01:09:16;97161.13;;;16.88;100.00
45247;BME280;31529;51.158;7.354;2023-07-02T01:09:47;97163.03;;;16.87;100.00
45247;BME280;31529;51.158;7.354;2023-07-02T01:10:18;97161.13;;;16.88;100.00
45247;BME280;31529;51.158;7.354;2023-07-02T01:10:52;97162.28;;;16.87;100.00
45247;BME280;31529;51.158;7.354;2023-07-02T01:11:25;97161.13;;;16.88;100.00
45247;BME280;31529;51.158;7.354;2023-07-02T01:12:02;97162.28;;;16.87;100.00
45247;BME280;31529;51.158;7.354;2023-07-02T01:12:35;97157.66;;;16.87;100.00
45247;BME280;31529;51.158;7.354;2023-07-02T01:13:08;97160.34;;;16.87;100.00
45247;BME280;31529;51.158;7.354;2023-07-02T01:13:45;97158.78;;;16.86;100.00
45247;BME280;31529;51.158;7.354;2023-07-02T01:14:20;97152.59;;;16.86;100.00
45247;BME280;31529;51.158;7.354;2023-07-02T01:14:56;97164.97;;;16.87;100.00
45247;BME280;31529;51.158;7.354;2023-07-02T01:15:32;97166.06;;;16.86;100.00
45247;BME280;31529;51.158;7.354;2023-07-02T01:16:03;97158.00;;;16.86;100.00
45247;BME280;31529;51.158;7.354;2023-07-02T01:16:35;97158.00;;;16.86;100.00
45247;BME280;31529;51.158;7.354;2023-07-02T01:17:07;97163.38;;;16.86;100.00
45247;BME280;31529;51.158;7.354;2023-07-02T01:17:39;97159.56;;;16.87;100.00
45247;BME280;31529;51.158;7.354;2023-07-02T01:18:13;97157.22;;;16.85;100.00
45247;BME280;31529;51.158;7.354;2023-07-02T01:18:45;97158.00;;;16.86;100.00
45247;BME280;31529;51.158;7.354;2023-07-02T01:19:59;97158.00;;;16.86;100.00
45247;BME280;31529;51.158;7.354;2023-07-02T01:20:21;97162.94;;;16.84;100.00
45247;BME280;31529;51.158;7.354;2023-07-02T01:20:54;97161.38;;;16.83;100.00
45247;BME280;31529;51.158;7.354;2023-07-02T01:21:25;97161.84;;;16.85;100.00
45247;BME280;31529;51.158;7.354;2023-07-02T01:21:57;97153.75;;;16.85;100.00
45247;BME280;31529;51.158;7.354;2023-07-02T01:22:28;97167.56;;;16.83;100.00
45247;BME280;31529;51.158;7.354;2023-07-02T01:22:59;97164.06;;;16.83;100.00
45247;BME280;31529;51.158;7.354;2023-07-02T01:23:34;97171.38;;;16.82;100.00
45247;BME280;31529;51.158;7.354;2023-07-02T01:24:05;97165.16;;;16.82;100.00
45247;BME280;31529;51.158;7.354;2023-07-02T01:24:38;97158.66;;;16.83;100.00
45247;BME280;31529;51.158;7.354;2023-07-02T01:25:10;97161.69;;;16.81;100.00
45247;BME280;31529;51.158;7.354;2023-07-02T01:25:41;97164.88;;;16.83;100.00
45247;BME280;31529;51.158;7.354;2023-07-02T01:26:12;97162.47;;;16.82;100.00
45247;BME280;31529;51.158;7.354;2023-07-02T01:26:43;97159.78;;;16.82;100.00
45247;BME280;31529;51.158;7.354;2023-07-02T01:27:16;97167.88;;;16.82;100.00
45247;BME280;31529;51.158;7.354;2023-07-02T01:27:47;97163.59;;;16.81;100.00
45247;BME280;31529;51.158;7.354;2023-07-02T01:28:19;97168.97;;;16.81;100.00
45247;BME280;31529;51.158;7.354;2023-07-02T01:28:50;97162.47;;;16.82;100.00
45247;BME280;31529;51.158;7.354;2023-07-02T01:29:21;97163.59;;;16.81;100.00
45247;BME280;31529;51.158;7.354;2023-07-02T01:29:52;97164.41;;;16.81;100.00
45247;BME280;31529;51.158;7.354;2023-07-02T01:30:24;97169.44;;;16.83;100.00
45247;BME280;31529;51.158;7.354;2023-07-02T01:30:56;97165.16;;;16.82;100.00
45247;BME280;31529;51.158;7.354;2023-07-02T01:31:27;97161.69;;;16.81;100.00
45247;BME280;31529;51.158;7.354;2023-07-02T01:31:58;97166.28;;;16.81;100.00
45247;BME280;31529;51.158;7.354;2023-07-02T01:32:29;97162.03;;;16.79;100.00
45247;BME280;31529;51.158;7.354;2023-07-02T01:33:01;97169.78;;;16.81;100.00
45247;BME280;31529;51.158;7.354;2023-07-02T01:33:32;97172.81;;;16.79;100.00
45247;BME280;31529;51.158;7.354;2023-07-02T01:34:03;97160.47;;;16.78;100.00
45247;BME280;31529;51.158;7.354;2023-07-02T01:34:35;97164.72;;;16.79;100.00
45247;BME280;31529;51.158;7.354;2023-07-02T01:35:07;97162.38;;;16.78;100.00
45247;BME280;31529;51.158;7.354;2023-07-02T01:35:38;97166.22;;;16.77;100.00
45247;BME280;31529;51.158;7.354;2023-07-02T01:36:10;97163.53;;;16.77;100.00
45247;BME280;31529;51.158;7.354;2023-07-02T01:36:41;97158.13;;;16.77;100.00
45247;BME280;31529;51.158;7.354;2023-07-02T01:37:12;97171.94;;;16.75;100.00
45247;BME280;31529;51.158;7.354;2023-07-02T01:37:43;97167.31;;;16.76;100.00
45247;BME280;31529;51.158;7.354;2023-07-02T01:38:15;97163.84;;;16.75;100.00
45247;BME280;31529;51.158;7.354;2023-07-02T01:38:46;97166.56;;;16.75;100.00
45247;BME280;31529;51.158;7.354;2023-07-02T01:39:17;97163.06;;;16.75;100.00
45247;BME280;31529;51.158;7.354;2023-07-02T01:39:48;97164.19;;;16.74;100.00
45247;BME280;31529;51.158;7.354;2023-07-02T01:40:20;97157.66;;;16.75;100.00
45247;BME280;31529;51.158;7.354;2023-07-02T01:40:51;97156.88;;;16.74;100.00
45247;BME280;31529;51.158;7.354;2023-07-02T01:41:23;97155.34;;;16.73;100.00
45247;BME280;31529;51.158;7.354;2023-07-02T01:41:55;97154.19;;;16.74;100.00
45247;BME280;31529;51.158;7.354;2023-07-02T01:42:37;97149.94;;;16.73;100.00
45247;BME280;31529;51.158;7.354;2023-07-02T01:43:09;97149.94;;;16.73;100.00
45247;BME280;31529;51.158;7.354;2023-07-02T01:43:40;97001.31;;;15.71;100.00
45247;BME280;31529;51.158;7.354;2023-07-02T01:44:11;97157.22;;;16.73;100.00
45247;BME280;31529;51.158;7.354;2023-07-02T01:44:46;97152.22;;;16.71;100.00
45247;BME280;31529;51.158;7.354;2023-07-02T01:45:19;97147.94;;;16.70;100.00
45247;BME280;31529;51.158;7.354;2023-07-02T01:45:50;97151.41;;;16.71;100.00
45247;BME280;31529;51.158;7.354;2023-07-02T01:46:21;97160.28;;;16.71;100.00
45247;BME280;31529;51.158;7.354;2023-07-02T01:46:52;97155.25;;;16.70;100.00
45247;BME280;31529;51.158;7.354;2023-07-02T01:47:23;97157.13;;;16.69;100.00
45247;BME280;31529;51.158;7.354;2023-07-02T01:47:54;97151.75;;;16.69;100.00
45247;BME280;31529;51.158;7.354;2023-07-02T01:48:25;97152.53;;;16.70;100.00
45247;BME280;31529;51.158;7.354;2023-07-02T01:48:56;97152.88;;;16.68;100.00
45247;BME280;31529;51.158;7.354;2023-07-02T01:49:27;97149.03;;;16.69;100.00
45247;BME280;31529;51.158;7.354;2023-07-02T01:49:59;97150.97;;;16.69;100.00
45247;BME280;31529;51.158;7.354;2023-07-02T01:50:30;97145.56;;;16.69;100.00
45247;BME280;31529;51.158;7.354;2023-07-02T01:51:01;97152.88;;;16.68;100.00
45247;BME280;31529;51.158;7.354;2023-07-02T01:51:32;97145.56;;;16.69;100.00
45247;BME280;31529;51.158;7.354;2023-07-02T01:52:04;97146.72;;;16.68;100.00
45247;BME280;31529;51.158;7.354;2023-07-02T01:52:36;97154.00;;;16.67;100.00
45247;BME280;31529;51.158;7.354;2023-07-02T01:53:07;97148.28;;;16.69;100.00
45247;BME280;31529;51.158;7.354;2023-07-02T01:53:38;97149.41;;;16.68;100.00
45247;BME280;31529;51.158;7.354;2023-07-02T01:54:10;97149.41;;;16.68;100.00
45247;BME280;31529;51.158;7.354;2023-07-02T01:54:41;97150.53;;;16.67;100.00
45247;BME280;31529;51.158;7.354;2023-07-02T01:55:12;97152.44;;;16.66;100.00
45247;BME280;31529;51.158;7.354;2023-07-02T01:55:43;97153.22;;;16.67;100.00
45247;BME280;31529;51.158;7.354;2023-07-02T01:56:14;97154.00;;;16.67;100.00
45247;BME280;31529;51.158;7.354;2023-07-02T01:56:45;97159.38;;;16.67;100.00
45247;BME280;31529;51.158;7.354;2023-07-02T01:57:16;97161.63;;;16.65;100.00
45247;BME280;31529;51.158;7.354;2023-07-02T01:57:47;97151.66;;;16.66;100.00
45247;BME280;31529;51.158;7.354;2023-07-02T01:58:19;97157.06;;;16.66;100.00
45247;BME280;31529;51.158;7.354;2023-07-02T01:58:51;97161.63;;;16.65;100.00
45247;BME280;31529;51.158;7.354;2023-07-02T01:59:22;97160.84;;;16.65;100.00
45247;BME280;31529;51.158;7.354;2023-07-02T01:59:53;97156.25;;;16.65;100.00
45247;BME280;31529;51.158;7.354;2023-07-02T02:00:24;97155.47;;;16.65;100.00
45247;BME280;31529;51.158;7.354;2023-07-02T02:00:55;97157.38;;;16.64;100.00
45247;BME280;31529;51.158;7.354;2023-07-02T02:01:26;97149.31;;;16.64;100.00
45247;BME280;31529;51.158;7.354;2023-07-02T02:01:58;97157.38;;;16.64;100.00
45247;BME280;31529;51.158;7.354;2023-07-02T02:02:29;97161.19;;;16.63;100.00
45247;BME280;31529;51.158;7.354;2023-07-02T02:03:00;97163.88;;;16.63;100.00
45247;BME280;31529;51.158;7.354;2023-07-02T02:03:31;97163.88;;;16.63;100.00
45247;BME280;31529;51.158;7.354;2023-07-02T02:04:02;97163.88;;;16.63;100.00
45247;BME280;31529;51.158;7.354;2023-07-02T02:04:34;97163.88;;;16.63;100.00
45247;BME280;31529;51.158;7.354;2023-07-02T02:05:05;97161.19;;;16.63;100.00
45247;BME280;31529;51.158;7.354;2023-07-02T02:05:36;97160.41;;;16.63;100.00
45247;BME280;31529;51.158;7.354;2023-07-02T02:06:07;97158.50;;;16.63;100.00
45247;BME280;31529;51.158;7.354;2023-07-02T02:06:38;97160.41;;;16.63;100.00
45247;BME280;31529;51.158;7.354;2023-07-02T02:07:10;97158.50;;;16.63;100.00
45247;BME280;31529;51.158;7.354;2023-07-02T02:07:41;97080.91;;;16.12;100.00
45247;BME280;31529;51.158;7.354;2023-07-02T02:08:12;97163.13;;;16.63;100.00
45247;BME280;31529;51.158;7.354;2023-07-02T02:08:43;97163.88;;;16.63;100.00
45247;BME280;31529;51.158;7.354;2023-07-02T02:09:14;97170.84;;;16.64;100.00
45247;BME280;31529;51.158;7.354;2023-07-02T02:09:45;97166.16;;;16.61;100.00
45247;BME280;31529;51.158;7.354;2023-07-02T02:10:16;97171.53;;;16.61;100.00
45247;BME280;31529;51.158;7.354;2023-07-02T02:10:48;97165.38;;;16.61;100.00
45247;BME280;31529;51.158;7.354;2023-07-02T02:11:19;97159.97;;;16.61;100.00
45247;BME280;31529;51.158;7.354;2023-07-02T02:11:50;97152.25;;;16.59;100.00
45247;BME280;31529;51.158;7.354;2023-07-02T02:12:22;97156.50;;;16.60;100.00
45247;BME280;31529;51.158;7.354;2023-07-02T02:12:53;97154.59;;;16.61;100.00
45247;BME280;31529;51.158;7.354;2023-07-02T02:13:24;97160.75;;;16.61;100.00
45247;BME280;31529;51.158;7.354;2023-07-02T02:13:56;97158.41;;;16.59;100.00
45247;BME280;31529;51.158;7.354;2023-07-02T02:14:28;97159.22;;;16.60;100.00
45247;BME280;31529;51.158;7.354;2023-07-02T02:14:59;97159.22;;;16.60;100.00
45247;BME280;31529;51.158;7.354;2023-07-02T02:15:30;97164.59;;;16.60;100.00
45247;BME280;31529;51.158;7.354;2023-07-02T02:16:01;97165.69;;;16.59;100.00
45247;BME280;31529;51.158;7.354;2023-07-02T02:16:32;97164.59;;;16.60;100.00
45247;BME280;31529;51.158;7.354;2023-07-02T02:17:06;97161.09;;;16.59;100.00
45247;BME280;31529;51.158;7.354;2023-07-02T02:17:38;97000.44;;;15.54;100.00
45247;BME280;31529;51.158;7.354;2023-07-02T02:18:09;97155.38;;;16.61;100.00
45247;BME280;31529;51.158;7.354;2023-07-02T02:18:40;97149.53;;;16.59;100.00
45247;BME280;31529;51.158;7.354;2023-07-02T02:19:11;97151.47;;;16.58;100.00
45247;BME280;31529;51.158;7.354;2023-07-02T02:19:43;97146.06;;;16.58;100.00
45247;BME280;31529;51.158;7.354;2023-07-02T02:20:14;97144.50;;;16.57;100.00
45247;BME280;31529;51.158;7.354;2023-07-02T02:20:45;97147.53;;;16.56;100.00
45247;BME280;31529;51.158;7.354;2023-07-02T02:21:17;97145.97;;;16.55;100.00
45247;BME280;31529;51.158;7.354;2023-07-02T02:21:48;97144.38;;;16.54;100.00
45247;BME280;31529;51.158;7.354;2023-07-02T02:22:19;97143.94;;;16.52;100.00
45247;BME280;31529;51.158;7.354;2023-07-02T02:22:50;97145.09;;;16.51;100.00
45247;BME280;31529;51.158;7.354;2023-07-02T02:23:21;97144.66;;;16.49;100.00
45247;BME280;31529;51.158;7.354;2023-07-02T02:23:52;97149.59;;;16.47;100.00
45247;BME280;31529;51.158;7.354;2023-07-02T02:24:24;97145.31;;;16.46;100.00
45247;BME280;31529;51.158;7.354;2023-07-02T02:24:55;97145.66;;;16.44;100.00
45247;BME280;31529;51.158;7.354;2023-07-02T02:25:26;97151.03;;;16.44;100.00
45247;BME280;31529;51.158;7.354;2023-07-02T02:25:57;97143.31;;;16.43;100.00
45247;BME280;31529;51.158;7.354;2023-07-02T02:26:28;97144.78;;;16.40;100.00
45247;BME280;31529;51.158;7.354;2023-07-02T02:26:59;97155.09;;;16.38;100.00
45247;BME280;31529;51.158;7.354;2023-07-02T02:27:30;97151.66;;;16.37;100.00
45247;BME280;31529;51.158;7.354;2023-07-02T02:28:01;97152.75;;;16.36;100.00
45247;BME280;31529;51.158;7.354;2023-07-02T02:28:33;97152.31;;;16.34;100.00
45247;BME280;31529;51.158;7.354;2023-07-02T02:29:04;97163.09;;;16.34;100.00
45247;BME280;31529;51.158;7.354;2023-07-02T02:29:35;97164.22;;;16.33;100.00
45247;BME280;31529;51.158;7.354;2023-07-02T02:30:06;97166.91;;;16.33;100.00
45247;BME280;31529;51.158;7.354;2023-07-02T02:30:38;97159.94;;;16.32;100.00
45247;BME280;31529;51.158;7.354;2023-07-02T02:31:09;97169.13;;;16.31;100.00
45247;BME280;31529;51.158;7.354;2023-07-02T02:31:40;97168.34;;;16.31;100.00
45247;BME280;31529;51.158;7.354;2023-07-02T02:32:11;97165.66;;;16.31;100.00
45247;BME280;31529;51.158;7.354;2023-07-02T02:32:42;97167.56;;;16.30;100.00
45247;BME280;31529;51.158;7.354;2023-07-02T02:33:13;97166.00;;;16.29;100.00
45247;BME280;31529;51.158;7.354;2023-07-02T02:33:44;97126.38;;;16.02;100.00
45247;BME280;31529;51.158;7.354;2023-07-02T02:34:16;97165.22;;;16.29;100.00
45247;BME280;31529;51.158;7.354;2023-07-02T02:34:47;97169.13;;;16.31;100.00
45247;BME280;31529;51.158;7.354;2023-07-02T02:35:18;97171.38;;;16.29;100.00
45247;BME280;31529;51.158;7.354;2023-07-02T02:35:49;97171.38;;;16.29;100.00
45247;BME280;31529;51.158;7.354;2023-07-02T02:36:20;97172.53;;;16.28;100.00
45247;BME280;31529;51.158;7.354;2023-07-02T02:36:51;97169.06;;;16.28;100.00
45247;BME280;31529;51.158;7.354;2023-07-02T02:37:22;97173.28;;;16.29;100.00
45247;BME280;31529;51.158;7.354;2023-07-02T02:37:54;97178.69;;;16.29;100.00
45247;BME280;31529;51.158;7.354;2023-07-02T02:38:25;97181.72;;;16.27;100.00
45247;BME280;31529;51.158;7.354;2023-07-02T02:38:56;97174.06;;;16.29;100.00
45247;BME280;31529;51.158;7.354;2023-07-02T02:39:28;97176.78;;;16.29;100.00
45247;BME280;31529;51.158;7.354;2023-07-02T02:39:59;97176.78;;;16.29;100.00
45247;BME280;31529;51.158;7.354;2023-07-02T02:40:30;97176.78;;;16.29;100.00
45247;BME280;31529;51.158;7.354;2023-07-02T02:41:01;97176.78;;;16.29;100.00
45247;BME280;31529;51.158;7.354;2023-07-02T02:41:33;97172.97;;;16.30;100.00
45247;BME280;31529;51.158;7.354;2023-07-02T02:42:04;97178.34;;;16.30;100.00
45247;BME280;31529;51.158;7.354;2023-07-02T02:42:35;97181.81;;;16.31;100.00
45247;BME280;31529;51.158;7.354;2023-07-02T02:43:07;97178.00;;;16.32;100.00
45247;BME280;31529;51.158;7.354;2023-07-02T02:43:41;97172.28;;;16.33;100.00
45247;BME280;31529;51.158;7.354;2023-07-02T02:44:13;97169.59;;;16.33;100.00
45247;BME280;31529;51.158;7.354;2023-07-02T02:44:44;97179.56;;;16.33;100.00
45247;BME280;31529;51.158;7.354;2023-07-02T02:45:15;97171.50;;;16.33;100.00
45247;BME280;31529;51.158;7.354;2023-07-02T02:45:46;97183.06;;;16.33;100.00
45247;BME280;31529;51.158;7.354;2023-07-02T02:46:21;97177.69;;;16.33;100.00